createdAt,value
2023-05-10T00:00:26.570Z,25.35
2023-05-10T00:02:28.128Z,25.36
2023-05-10T00:04:29.725Z,25.37
2023-05-10T00:06:31.308Z,25.37
2023-05-10T00:08:32.920Z,25.37
2023-05-10T00:10:34.458Z,25.37
2023-05-10T00:12:35.943Z,25.37
2023-05-10T00:14:37.360Z,25.38
2023-05-10T00:16:38.910Z,25.38
2023-05-10T00:18:40.704Z,25.37
2023-05-10T00:20:42.237Z,25.37
2023-05-10T00:22:43.822Z,25.38
2023-05-10T00:24:45.300Z,25.38
2023-05-10T00:26:46.972Z,25.37
2023-05-10T00:28:48.516Z,25.36
2023-05-10T00:30:49.962Z,25.36
2023-05-10T00:32:52.666Z,25.36
2023-05-10T00:34:54.196Z,25.35
2023-05-10T00:36:55.756Z,25.34
2023-05-10T00:38:57.430Z,25.34
2023-05-10T00:40:58.813Z,25.33
2023-05-10T00:43:01.550Z,25.32
2023-05-10T00:45:03.139Z,25.32
2023-05-10T00:47:04.729Z,25.32
2023-05-10T00:49:06.824Z,25.32
2023-05-10T00:51:08.384Z,25.31
2023-05-10T00:53:09.902Z,25.33
2023-05-10T00:55:13.004Z,25.32
2023-05-10T00:57:14.453Z,25.32
2023-05-10T00:59:17.584Z,25.32
2023-05-10T01:01:20.089Z,25.32
2023-05-10T01:03:22.097Z,25.31
2023-05-10T01:05:23.906Z,25.30
2023-05-10T01:07:25.485Z,25.29
2023-05-10T01:09:27.371Z,25.28
2023-05-10T01:11:28.929Z,25.29
2023-05-10T01:13:34.324Z,25.30
2023-05-10T01:15:36.630Z,25.30
2023-05-10T01:17:39.309Z,25.32
2023-05-10T01:19:41.173Z,25.32
2023-05-10T01:21:50.696Z,25.33
2023-05-10T01:24:15.250Z,25.32
2023-05-10T01:26:31.335Z,25.32
2023-05-10T01:28:41.796Z,25.33
2023-05-10T01:31:05.076Z,25.31
2023-05-10T01:33:21.796Z,25.32
2023-05-10T01:35:44.430Z,25.31
2023-05-10T01:37:58.816Z,25.32
2023-05-10T01:40:14.386Z,25.32
2023-05-10T01:42:22.480Z,25.34
2023-05-10T01:44:29.871Z,25.23
2023-05-10T01:46:37.973Z,25.33
2023-05-10T01:48:41.261Z,25.33
2023-05-10T01:50:44.257Z,25.26
2023-05-10T01:52:49.154Z,25.35
2023-05-10T01:54:55.000Z,25.34
2023-05-10T01:57:00.445Z,25.35
2023-05-10T01:59:07.177Z,25.35
2023-05-10T02:01:09.461Z,25.34
2023-05-10T02:03:12.369Z,25.35
2023-05-10T02:05:16.030Z,25.35
2023-05-10T02:07:18.081Z,25.35
2023-05-10T02:09:20.257Z,25.36
2023-05-10T02:11:22.414Z,25.37
2023-05-10T02:13:24.771Z,25.36
2023-05-10T02:15:27.464Z,25.38
2023-05-10T02:17:29.698Z,25.37
2023-05-10T02:19:32.947Z,25.36
2023-05-10T02:21:34.525Z,25.36
2023-05-10T02:23:36.820Z,25.35
2023-05-10T02:25:39.657Z,25.35
2023-05-10T02:27:42.590Z,25.35
2023-05-10T02:29:44.204Z,25.36
2023-05-10T02:31:46.697Z,25.36
2023-05-10T02:33:49.116Z,25.37
2023-05-10T02:35:51.752Z,25.37
2023-05-10T02:37:54.420Z,25.38
2023-05-10T02:39:56.324Z,25.38
2023-05-10T02:41:58.293Z,25.38
2023-05-10T02:44:01.103Z,25.38
2023-05-10T02:46:03.108Z,25.37
2023-05-10T02:48:04.814Z,25.38
2023-05-10T02:50:06.765Z,25.36
2023-05-10T02:52:10.129Z,25.37
2023-05-10T02:54:16.742Z,25.37
2023-05-10T02:56:32.698Z,25.38
2023-05-10T02:58:34.245Z,25.39
2023-05-10T03:00:37.197Z,25.39
2023-05-10T03:02:38.808Z,25.40
2023-05-10T03:04:40.361Z,25.39
2023-05-10T03:06:42.769Z,25.40
2023-05-10T03:08:45.316Z,25.40
2023-05-10T03:10:55.610Z,25.40
2023-05-10T03:13:07.073Z,25.39
2023-05-10T03:15:13.293Z,25.39
2023-05-10T03:17:17.748Z,25.39
2023-05-10T03:19:31.180Z,25.38
2023-05-10T03:21:33.525Z,25.39
2023-05-10T03:23:43.763Z,25.40
2023-05-10T03:25:47.810Z,25.41
2023-05-10T03:27:50.163Z,25.42
2023-05-10T03:29:52.209Z,25.42
2023-05-10T03:31:53.840Z,25.42
2023-05-10T03:33:55.499Z,25.42
2023-05-10T03:35:57.965Z,25.42
2023-05-10T03:37:59.365Z,25.42
2023-05-10T03:40:00.807Z,25.41
2023-05-10T03:42:02.268Z,25.41
2023-05-10T03:44:04.072Z,25.42
2023-05-10T03:46:06.299Z,25.41
2023-05-10T03:48:07.913Z,25.42
2023-05-10T03:50:09.615Z,25.43
2023-05-10T03:52:11.051Z,25.43
2023-05-10T03:54:12.838Z,25.45
2023-05-10T03:56:14.387Z,25.44
2023-05-10T03:58:16.129Z,25.45
2023-05-10T04:00:18.271Z,25.35
2023-05-10T04:02:19.958Z,25.45
2023-05-10T04:04:22.386Z,25.44
2023-05-10T04:06:23.833Z,25.43
2023-05-10T04:08:25.286Z,25.44
2023-05-10T04:10:26.810Z,25.44
2023-05-10T04:12:28.679Z,25.44
2023-05-10T04:14:30.341Z,25.45
2023-05-10T04:16:31.789Z,25.46
2023-05-10T04:18:33.216Z,25.47
2023-05-10T04:20:35.174Z,25.47
2023-05-10T04:22:36.671Z,25.46
2023-05-10T04:24:38.095Z,25.47
2023-05-10T04:26:39.565Z,25.46
2023-05-10T04:28:41.001Z,25.46
2023-05-10T04:30:42.559Z,25.46
2023-05-10T04:32:44.000Z,25.46
2023-05-10T04:34:45.608Z,25.46
2023-05-10T04:36:47.096Z,25.46
2023-05-10T04:38:48.697Z,25.47
2023-05-10T04:40:50.300Z,25.47
2023-05-10T04:42:52.439Z,25.49
2023-05-10T04:44:54.096Z,25.49
2023-05-10T04:46:58.847Z,25.49
2023-05-10T04:49:00.395Z,25.49
2023-05-10T04:51:02.075Z,25.50
2023-05-10T04:53:03.516Z,25.49
2023-05-10T04:55:05.430Z,25.50
2023-05-10T04:57:06.881Z,25.47
2023-05-10T04:59:08.368Z,25.48
2023-05-10T05:01:11.477Z,25.49
2023-05-10T05:03:13.054Z,25.49
2023-05-10T05:05:17.485Z,25.50
2023-05-10T05:07:18.896Z,25.50
2023-05-10T05:09:20.836Z,25.50
2023-05-10T05:11:22.253Z,25.52
2023-05-10T05:13:23.841Z,25.52
2023-05-10T05:15:25.578Z,25.52
2023-05-10T05:17:27.227Z,25.52
2023-05-10T05:19:28.696Z,25.53
2023-05-10T05:21:30.201Z,25.51
2023-05-10T05:23:31.738Z,25.51
2023-05-10T05:25:33.204Z,25.51
2023-05-10T05:27:34.802Z,25.50
2023-05-10T05:29:36.487Z,25.51
2023-05-10T05:31:38.063Z,25.52
2023-05-10T05:33:39.591Z,25.53
2023-05-10T05:35:41.046Z,25.53
2023-05-10T05:37:42.491Z,25.54
2023-05-10T05:39:44.202Z,25.54
2023-05-10T05:41:45.903Z,25.54
2023-05-10T05:43:47.403Z,25.46
2023-05-10T05:45:48.944Z,25.53
2023-05-10T05:47:50.751Z,25.54
2023-05-10T05:49:52.333Z,25.53
2023-05-10T05:51:54.509Z,25.54
2023-05-10T05:53:56.278Z,25.54
2023-05-10T05:55:59.053Z,25.54
2023-05-10T05:58:00.572Z,25.55
2023-05-10T06:00:02.414Z,25.56
2023-05-10T06:02:04.071Z,25.57
2023-05-10T06:04:05.634Z,25.58
2023-05-10T06:06:07.324Z,25.58
2023-05-10T06:08:08.911Z,25.59
2023-05-10T06:10:10.527Z,25.58
2023-05-10T06:12:12.906Z,25.58
2023-05-10T06:14:14.399Z,25.57
2023-05-10T06:16:16.032Z,25.58
2023-05-10T06:18:17.506Z,25.58
2023-05-10T06:20:18.999Z,25.58
2023-05-10T06:22:20.626Z,25.60
2023-05-10T06:24:22.777Z,25.60
2023-05-10T06:26:24.289Z,25.60
2023-05-10T06:28:25.727Z,25.61
2023-05-10T06:30:29.485Z,25.61
2023-05-10T06:32:31.527Z,25.61
2023-05-10T06:34:33.244Z,25.62
2023-05-10T06:36:34.949Z,25.52
2023-05-10T06:38:36.379Z,25.60
2023-05-10T06:40:37.811Z,25.62
2023-05-10T06:42:39.345Z,25.61
2023-05-10T06:44:40.825Z,25.60
2023-05-10T06:46:42.830Z,25.60
2023-05-10T06:48:44.545Z,25.62
2023-05-10T06:50:46.046Z,25.61
2023-05-10T06:52:47.490Z,25.62
2023-05-10T06:54:49.309Z,25.63
2023-05-10T06:56:50.910Z,25.63
2023-05-10T06:58:52.506Z,25.63
2023-05-10T07:00:54.091Z,25.63
2023-05-10T07:02:56.041Z,25.62
2023-05-10T07:05:00.843Z,25.63
2023-05-10T07:07:03.613Z,25.63
2023-05-10T07:09:05.022Z,25.62
2023-05-10T07:11:08.297Z,25.62
2023-05-10T07:13:10.801Z,25.63
2023-05-10T07:15:12.437Z,25.64
2023-05-10T07:17:14.060Z,25.65
2023-05-10T07:19:15.830Z,25.64
2023-05-10T07:21:17.541Z,25.65
2023-05-10T07:23:19.393Z,25.65
2023-05-10T07:25:20.845Z,25.67
2023-05-10T07:27:22.270Z,25.65
2023-05-10T07:29:23.786Z,25.63
2023-05-10T07:31:25.285Z,25.65
2023-05-10T07:33:26.764Z,25.64
2023-05-10T07:35:28.178Z,25.64
2023-05-10T07:37:29.688Z,25.63
2023-05-10T07:39:31.326Z,25.65
2023-05-10T07:41:35.110Z,25.65
2023-05-10T07:43:37.096Z,25.65
2023-05-10T07:45:38.783Z,25.66
2023-05-10T07:47:40.338Z,25.65
2023-05-10T07:49:41.911Z,25.67
2023-05-10T07:51:43.703Z,25.67
2023-05-10T07:53:45.252Z,25.66
2023-05-10T07:55:51.364Z,25.65
2023-05-10T07:57:53.060Z,25.64
2023-05-10T07:59:54.681Z,25.65
2023-05-10T08:01:57.311Z,25.64
2023-05-10T08:03:58.912Z,25.66
2023-05-10T08:06:00.643Z,25.65
2023-05-10T08:08:02.103Z,25.68
2023-05-10T08:10:03.948Z,25.68
2023-05-10T08:12:05.654Z,25.68
2023-05-10T08:14:07.219Z,25.70
2023-05-10T08:16:08.795Z,25.73
2023-05-10T08:18:10.494Z,25.74
2023-05-10T08:20:13.863Z,25.76
2023-05-10T08:22:15.276Z,25.79
2023-05-10T08:24:16.745Z,25.83
2023-05-10T08:26:18.203Z,25.87
2023-05-10T08:28:19.623Z,25.89
2023-05-10T08:30:21.072Z,25.93
2023-05-10T08:32:22.512Z,25.95
2023-05-10T08:34:24.738Z,25.97
2023-05-10T08:36:27.484Z,26.01
2023-05-10T08:38:28.972Z,26.03
2023-05-10T08:40:30.491Z,26.05
2023-05-10T08:42:35.876Z,26.07
2023-05-10T08:44:37.767Z,26.10
2023-05-10T08:46:45.016Z,26.11
2023-05-10T08:48:47.467Z,26.12
2023-05-10T08:50:49.654Z,26.14
2023-05-10T08:52:53.844Z,26.14
2023-05-10T08:54:55.301Z,26.14
2023-05-10T08:56:57.150Z,26.14
2023-05-10T08:58:58.886Z,26.13
2023-05-10T09:01:00.471Z,26.12
2023-05-10T09:03:02.632Z,26.11
2023-05-10T09:05:05.696Z,26.10
2023-05-10T09:07:07.749Z,26.09
2023-05-10T09:09:09.365Z,26.08
2023-05-10T09:11:11.639Z,26.05
2023-05-10T09:13:15.036Z,26.03
2023-05-10T09:15:17.393Z,26.02
2023-05-10T09:17:19.204Z,26.00
2023-05-10T09:19:20.836Z,25.99
2023-05-10T09:21:22.321Z,25.99
2023-05-10T09:23:24.383Z,25.98
2023-05-10T09:25:25.972Z,25.96
2023-05-10T09:27:27.811Z,25.97
2023-05-10T09:29:39.823Z,25.96
2023-05-10T09:31:57.372Z,25.95
2023-05-10T09:33:59.077Z,25.95
2023-05-10T09:36:08.212Z,25.93
2023-05-10T09:38:11.269Z,25.92
2023-05-10T09:40:16.819Z,25.92
2023-05-10T09:42:19.134Z,25.90
2023-05-10T09:44:20.786Z,25.92
2023-05-10T09:46:23.514Z,25.93
2023-05-10T09:48:25.813Z,25.95
2023-05-10T09:50:27.682Z,25.97
2023-05-10T09:52:29.500Z,26.02
2023-05-10T09:54:31.398Z,26.04
2023-05-10T09:56:36.880Z,26.07
2023-05-10T09:58:41.642Z,26.09
2023-05-10T10:00:44.036Z,26.10
2023-05-10T10:02:49.199Z,26.09
2023-05-10T10:04:51.692Z,26.07
2023-05-10T10:07:19.537Z,26.07
2023-05-10T10:09:21.081Z,26.05
2023-05-10T10:11:23.836Z,26.05
2023-05-10T10:13:25.503Z,26.05
2023-05-10T10:15:27.145Z,26.04
2023-05-10T10:17:29.200Z,26.04
2023-05-10T10:19:31.410Z,26.03
2023-05-10T10:21:33.597Z,26.02
2023-05-10T10:23:37.892Z,26.00
2023-05-10T10:25:39.595Z,26.01
2023-05-10T10:27:59.358Z,26.03
2023-05-10T10:30:16.068Z,26.05
2023-05-10T10:32:29.107Z,26.07
2023-05-10T10:34:31.593Z,26.09
2023-05-10T10:36:34.905Z,26.09
2023-05-10T10:38:37.886Z,26.11
2023-05-10T10:40:39.684Z,26.12
2023-05-10T10:42:51.115Z,26.13
2023-05-10T10:45:12.320Z,26.13
2023-05-10T10:47:24.055Z,26.13
2023-05-10T10:49:25.779Z,26.09
2023-05-10T10:51:29.971Z,26.08
2023-05-10T10:53:31.774Z,26.07
2023-05-10T10:55:33.386Z,25.96
2023-05-10T10:57:43.653Z,26.04
2023-05-10T10:59:45.459Z,26.04
2023-05-10T11:01:52.514Z,26.01
2023-05-10T11:04:06.593Z,26.03
2023-05-10T11:06:09.089Z,26.06
2023-05-10T11:08:12.024Z,26.10
2023-05-10T11:10:19.985Z,26.13
2023-05-10T11:12:21.560Z,26.16
2023-05-10T11:14:23.568Z,26.18
2023-05-10T11:16:26.254Z,26.21
2023-05-10T11:18:29.512Z,26.22
2023-05-10T11:20:39.378Z,26.20
2023-05-10T11:22:51.649Z,26.20
2023-05-10T11:25:02.024Z,26.20
2023-05-10T11:27:03.541Z,26.17
2023-05-10T11:29:05.984Z,26.18
2023-05-10T11:31:07.788Z,26.18
2023-05-10T11:33:09.810Z,26.17
2023-05-10T11:35:12.061Z,26.17
2023-05-10T11:37:13.592Z,26.17
2023-05-10T11:39:15.097Z,26.17
2023-05-10T11:41:18.194Z,26.17
2023-05-10T11:43:19.747Z,26.16
2023-05-10T11:45:22.846Z,26.16
2023-05-10T11:47:24.539Z,26.15
2023-05-10T11:49:26.993Z,26.15
2023-05-10T11:51:28.585Z,26.14
2023-05-10T11:53:33.207Z,26.14
2023-05-10T11:55:34.828Z,26.14
2023-05-10T11:57:39.352Z,26.14
2023-05-10T11:59:43.095Z,26.14
2023-05-10T12:01:45.086Z,26.09
2023-05-10T12:03:46.932Z,25.95
2023-05-10T12:05:48.818Z,25.84
2023-05-10T12:07:50.336Z,25.73
2023-05-10T12:10:07.291Z,25.66
2023-05-10T12:12:08.710Z,25.55
2023-05-10T12:14:10.830Z,25.45
2023-05-10T12:16:17.012Z,25.39
2023-05-10T12:18:24.397Z,25.34
2023-05-10T12:20:28.312Z,25.33
2023-05-10T12:22:29.983Z,25.33
2023-05-10T12:24:31.552Z,25.35
2023-05-10T12:26:33.302Z,25.35
2023-05-10T12:28:36.403Z,25.33
2023-05-10T12:30:38.183Z,25.29
2023-05-10T12:32:40.567Z,25.29
2023-05-10T12:34:42.098Z,25.31
2023-05-10T12:36:43.533Z,25.31
2023-05-10T12:38:48.670Z,25.25
2023-05-10T12:40:50.865Z,25.11
2023-05-10T12:42:53.516Z,25.21
2023-05-10T12:44:58.511Z,25.21
2023-05-10T12:46:59.964Z,25.19
2023-05-10T12:49:08.574Z,25.21
2023-05-10T12:51:14.054Z,25.20
2023-05-10T12:53:16.740Z,25.18
2023-05-10T12:55:18.395Z,25.12
2023-05-10T12:57:20.865Z,25.13
2023-05-10T12:59:22.392Z,25.11
2023-05-10T13:01:24.055Z,25.05
2023-05-10T13:03:25.747Z,25.01
2023-05-10T13:05:27.537Z,24.95
2023-05-10T13:07:29.130Z,24.89
2023-05-10T13:09:30.769Z,24.86
2023-05-10T13:11:32.376Z,24.82
2023-05-10T13:13:33.983Z,24.77
2023-05-10T13:15:36.086Z,24.72
2023-05-10T13:17:39.884Z,24.65
2023-05-10T13:19:41.435Z,24.61
2023-05-10T13:21:43.080Z,24.56
2023-05-10T13:23:44.491Z,24.50
2023-05-10T13:25:45.961Z,24.46
2023-05-10T13:27:47.421Z,24.41
2023-05-10T13:29:49.264Z,24.34
2023-05-10T13:31:51.253Z,24.31
2023-05-10T13:33:52.734Z,24.29
2023-05-10T13:35:55.774Z,24.27
2023-05-10T13:37:58.672Z,24.26
2023-05-10T13:40:00.118Z,24.29
2023-05-10T13:42:01.617Z,24.25
2023-05-10T13:44:03.153Z,24.24
2023-05-10T13:46:04.706Z,24.22
2023-05-10T13:48:06.863Z,24.18
2023-05-10T13:50:08.772Z,24.17
2023-05-10T13:52:10.972Z,24.15
2023-05-10T13:54:13.638Z,24.14
2023-05-10T13:56:15.308Z,24.16
2023-05-10T13:58:16.905Z,24.16
2023-05-10T14:00:18.451Z,24.18
2023-05-10T14:02:19.978Z,24.21
2023-05-10T14:04:21.610Z,24.20
2023-05-10T14:06:23.048Z,24.20
2023-05-10T14:08:24.810Z,24.19
2023-05-10T14:10:26.416Z,24.21
2023-05-10T14:12:28.160Z,24.17
2023-05-10T14:14:30.443Z,24.14
2023-05-10T14:16:32.160Z,24.13
2023-05-10T14:18:33.669Z,24.13
2023-05-10T14:20:35.283Z,24.10
2023-05-10T14:22:36.915Z,24.09
2023-05-10T14:24:39.175Z,24.08
2023-05-10T14:26:40.845Z,24.04
2023-05-10T14:28:42.422Z,24.04
2023-05-10T14:30:43.920Z,24.00
2023-05-10T14:32:45.400Z,24.00
2023-05-10T14:34:46.810Z,23.98
2023-05-10T14:36:48.320Z,23.97
2023-05-10T14:38:49.792Z,23.96
2023-05-10T14:40:51.246Z,23.93
2023-05-10T14:42:54.058Z,23.93
2023-05-10T14:44:55.607Z,23.88
2023-05-10T14:46:57.294Z,23.88
2023-05-10T14:48:58.757Z,23.87
2023-05-10T14:51:00.166Z,23.85
2023-05-10T14:53:01.596Z,23.83
2023-05-10T14:55:03.461Z,23.83
2023-05-10T14:57:04.863Z,23.82
2023-05-10T14:59:06.431Z,23.84
2023-05-10T15:01:08.297Z,23.80
2023-05-10T15:03:10.377Z,23.70
2023-05-10T15:05:12.315Z,23.68
2023-05-10T15:07:16.458Z,23.65
2023-05-10T15:09:18.089Z,23.67
2023-05-10T15:11:19.510Z,23.67
2023-05-10T15:13:20.947Z,23.67
2023-05-10T15:15:22.344Z,23.64
2023-05-10T15:17:24.040Z,23.62
2023-05-10T15:19:25.639Z,23.58
2023-05-10T15:21:28.440Z,23.58
2023-05-10T15:23:30.828Z,23.58
2023-05-10T15:25:35.188Z,23.54
2023-05-10T15:27:36.694Z,23.52
2023-05-10T15:29:38.167Z,23.52
2023-05-10T15:31:40.454Z,23.53
2023-05-10T15:33:42.052Z,23.54
2023-05-10T15:35:43.561Z,23.49
2023-05-10T15:37:45.069Z,23.46
2023-05-10T15:39:46.550Z,23.46
2023-05-10T15:41:48.136Z,23.42
2023-05-10T15:43:49.532Z,23.43
2023-05-10T15:45:51.346Z,23.40
2023-05-10T15:47:53.182Z,23.39
2023-05-10T15:49:54.663Z,23.33
2023-05-10T15:51:56.162Z,23.30
2023-05-10T15:54:07.194Z,23.26
2023-05-10T15:56:09.688Z,23.21
2023-05-10T15:58:11.406Z,23.22
2023-05-10T16:00:13.238Z,23.21
2023-05-10T16:02:15.893Z,23.20
2023-05-10T16:04:18.131Z,23.18
2023-05-10T16:06:19.662Z,23.20
2023-05-10T16:08:21.046Z,23.23
2023-05-10T16:10:22.521Z,23.24
2023-05-10T16:12:23.941Z,23.26
2023-05-10T16:14:25.598Z,23.28
2023-05-10T16:16:27.104Z,23.30
2023-05-10T16:18:28.832Z,23.32
2023-05-10T16:20:31.107Z,23.31
2023-05-10T16:22:32.777Z,23.29
2023-05-10T16:24:34.248Z,23.27
2023-05-10T16:26:40.831Z,23.25
2023-05-10T16:28:42.589Z,23.25
2023-05-10T16:30:44.103Z,23.28
2023-05-10T16:32:45.668Z,23.33
2023-05-10T16:34:47.250Z,23.35
2023-05-10T16:36:48.726Z,23.36
2023-05-10T16:38:50.418Z,23.39
2023-05-10T16:40:51.871Z,23.34
2023-05-10T16:42:53.361Z,23.33
2023-05-10T16:44:54.941Z,23.28
2023-05-10T16:46:56.371Z,23.25
2023-05-10T16:48:59.760Z,23.19
2023-05-10T16:51:02.678Z,23.16
2023-05-10T16:53:04.257Z,23.12
2023-05-10T16:55:05.981Z,23.11
2023-05-10T16:57:08.506Z,23.14
2023-05-10T16:59:10.167Z,23.15
2023-05-10T17:01:12.164Z,23.16
2023-05-10T17:03:13.696Z,23.17
2023-05-10T17:05:15.343Z,23.20
2023-05-10T17:07:19.050Z,23.15
2023-05-10T17:09:20.629Z,23.16
2023-05-10T17:11:22.177Z,23.16
2023-05-10T17:13:23.583Z,23.16
2023-05-10T17:15:25.091Z,23.22
2023-05-10T17:17:26.850Z,23.24
2023-05-10T17:19:28.457Z,23.29
2023-05-10T17:21:29.863Z,23.30
2023-05-10T17:23:31.398Z,23.33
2023-05-10T17:25:34.894Z,23.35
2023-05-10T17:27:36.457Z,23.35
2023-05-10T17:29:38.170Z,23.29
2023-05-10T17:31:39.995Z,23.30
2023-05-10T17:33:41.573Z,23.31
2023-05-10T17:35:44.806Z,23.30
2023-05-10T17:37:46.464Z,23.31
2023-05-10T17:39:47.935Z,23.28
2023-05-10T17:41:49.448Z,23.27
2023-05-10T17:43:51.056Z,23.22
2023-05-10T17:45:52.962Z,23.16
2023-05-10T17:47:54.574Z,23.11
2023-05-10T17:49:56.050Z,23.07
2023-05-10T17:51:57.695Z,23.08
2023-05-10T17:53:59.319Z,23.08
2023-05-10T17:56:01.632Z,23.05
2023-05-10T17:58:03.163Z,23.05
2023-05-10T18:00:06.461Z,23.01
2023-05-10T18:02:07.964Z,23.04
2023-05-10T18:04:09.633Z,23.05
2023-05-10T18:06:11.197Z,23.06
2023-05-10T18:08:12.761Z,23.07
2023-05-10T18:10:14.202Z,23.07
2023-05-10T18:12:15.809Z,23.04
2023-05-10T18:14:32.060Z,23.04
2023-05-10T18:16:38.942Z,23.04
2023-05-10T18:18:40.737Z,23.03
2023-05-10T18:20:42.440Z,23.05
2023-05-10T18:22:44.032Z,23.00
2023-05-10T18:24:46.988Z,22.99
2023-05-10T18:26:48.816Z,22.98
2023-05-10T18:28:50.243Z,22.96
2023-05-10T18:30:51.885Z,22.98
2023-05-10T18:32:54.043Z,22.99
2023-05-10T18:34:56.628Z,23.00
2023-05-10T18:36:58.258Z,23.03
2023-05-10T18:38:59.754Z,23.07
2023-05-10T18:41:01.298Z,23.05
2023-05-10T18:43:03.328Z,22.97
2023-05-10T18:45:04.948Z,22.94
2023-05-10T18:47:06.773Z,22.92
2023-05-10T18:49:08.436Z,22.92
2023-05-10T18:51:10.336Z,22.93
2023-05-10T18:53:12.329Z,22.90
2023-05-10T18:55:13.907Z,22.92
2023-05-10T18:57:15.670Z,22.91
2023-05-10T18:59:17.297Z,22.90
2023-05-10T19:01:18.816Z,22.89
2023-05-10T19:03:21.054Z,22.90
2023-05-10T19:05:27.192Z,22.89
2023-05-10T19:07:28.620Z,22.89
2023-05-10T19:09:30.182Z,22.90
2023-05-10T19:11:34.053Z,22.89
2023-05-10T19:13:35.527Z,22.90
2023-05-10T19:15:37.299Z,22.86
2023-05-10T19:17:40.103Z,22.82
2023-05-10T19:19:43.032Z,22.82
2023-05-10T19:21:47.311Z,22.84
2023-05-10T19:23:49.238Z,22.85
2023-05-10T19:25:50.985Z,22.86
2023-05-10T19:27:53.658Z,22.86
2023-05-10T19:29:55.180Z,22.88
2023-05-10T19:31:56.877Z,22.89
2023-05-10T19:34:00.744Z,22.91
2023-05-10T19:36:02.808Z,22.95
2023-05-10T19:38:04.285Z,22.98
2023-05-10T19:40:06.290Z,23.00
2023-05-10T19:42:08.314Z,23.05
2023-05-10T19:44:09.892Z,23.13
2023-05-10T19:46:13.377Z,23.18
2023-05-10T19:48:14.896Z,23.26
2023-05-10T19:50:17.289Z,23.32
2023-05-10T19:52:18.810Z,23.38
2023-05-10T19:54:20.635Z,23.43
2023-05-10T19:56:22.151Z,23.46
2023-05-10T19:58:24.381Z,23.50
2023-05-10T20:00:27.289Z,23.55
2023-05-10T20:02:28.767Z,23.58
2023-05-10T20:04:30.316Z,23.61
2023-05-10T20:06:31.802Z,23.64
2023-05-10T20:08:33.416Z,23.66
2023-05-10T20:10:34.896Z,23.68
2023-05-10T20:12:36.537Z,23.71
2023-05-10T20:14:38.172Z,23.74
2023-05-10T20:16:39.655Z,23.77
2023-05-10T20:18:41.624Z,23.80
2023-05-10T20:20:43.562Z,23.82
2023-05-10T20:22:45.602Z,23.85
2023-05-10T20:24:48.084Z,23.87
2023-05-10T20:26:49.629Z,23.90
2023-05-10T20:28:51.159Z,23.91
2023-05-10T20:30:53.857Z,23.94
2023-05-10T20:32:55.339Z,23.95
2023-05-10T20:34:56.981Z,23.98
2023-05-10T20:36:58.595Z,24.00
2023-05-10T20:39:00.362Z,24.01
2023-05-10T20:41:02.255Z,24.03
2023-05-10T20:43:05.259Z,24.06
2023-05-10T20:45:07.201Z,24.08
2023-05-10T20:47:08.764Z,24.10
2023-05-10T20:49:10.400Z,24.12
2023-05-10T20:51:11.979Z,24.15
2023-05-10T20:53:14.678Z,24.16
2023-05-10T20:55:16.172Z,24.17
2023-05-10T20:57:17.598Z,24.18
2023-05-10T20:59:19.143Z,24.20
2023-05-10T21:01:20.623Z,24.22
2023-05-10T21:03:22.077Z,24.21
2023-05-10T21:05:23.820Z,24.24
2023-05-10T21:07:25.512Z,24.27
2023-05-10T21:09:26.956Z,24.29
2023-05-10T21:11:28.468Z,24.31
2023-05-10T21:13:30.169Z,24.32
2023-05-10T21:15:31.728Z,24.35
2023-05-10T21:17:33.287Z,24.37
2023-05-10T21:19:35.006Z,24.38
2023-05-10T21:21:36.479Z,24.39
2023-05-10T21:23:38.071Z,24.40
2023-05-10T21:25:39.550Z,24.41
2023-05-10T21:27:41.120Z,24.43
2023-05-10T21:29:42.539Z,24.44
2023-05-10T21:31:44.015Z,24.45
2023-05-10T21:33:45.859Z,24.47
2023-05-10T21:35:47.556Z,24.48
2023-05-10T21:37:49.086Z,24.50
2023-05-10T21:39:50.628Z,24.52
2023-05-10T21:41:52.459Z,24.52
2023-05-10T21:43:53.917Z,24.54
2023-05-10T21:45:55.456Z,24.55
2023-05-10T21:47:57.027Z,24.55
2023-05-10T21:49:58.598Z,24.57
2023-05-10T21:52:00.107Z,24.58
2023-05-10T21:54:01.735Z,24.57
2023-05-10T21:56:03.315Z,24.60
2023-05-10T21:58:05.450Z,24.61
2023-05-10T22:00:07.318Z,24.62
2023-05-10T22:02:08.807Z,24.64
2023-05-10T22:04:10.343Z,24.66
2023-05-10T22:06:12.099Z,24.67
2023-05-10T22:08:13.561Z,24.70
2023-05-10T22:10:15.371Z,24.70
2023-05-10T22:12:17.234Z,24.72
2023-05-10T22:14:18.696Z,24.72
2023-05-10T22:16:20.352Z,24.73
2023-05-10T22:18:21.853Z,24.73
2023-05-10T22:20:23.385Z,24.74
2023-05-10T22:22:24.990Z,24.74
2023-05-10T22:24:26.479Z,24.75
2023-05-10T22:26:28.021Z,24.77
2023-05-10T22:28:29.641Z,24.78
2023-05-10T22:30:32.998Z,24.80
2023-05-10T22:32:34.930Z,24.81
2023-05-10T22:34:36.483Z,24.83
2023-05-10T22:36:37.903Z,24.84
2023-05-10T22:38:39.345Z,24.83
2023-05-10T22:40:41.466Z,24.84
2023-05-10T22:42:42.909Z,24.84
2023-05-10T22:44:44.457Z,24.84
2023-05-10T22:46:46.185Z,24.85
2023-05-10T22:48:48.400Z,24.86
2023-05-10T22:50:49.862Z,24.87
2023-05-10T22:52:51.281Z,24.87
2023-05-10T22:54:52.701Z,24.89
2023-05-10T22:56:54.262Z,24.90
2023-05-10T22:58:56.452Z,24.92
2023-05-10T23:00:58.008Z,24.93
2023-05-10T23:02:59.962Z,24.93
2023-05-10T23:05:01.570Z,24.94
2023-05-10T23:07:03.238Z,24.95
2023-05-10T23:09:04.770Z,24.93
2023-05-10T23:11:06.173Z,24.95
2023-05-10T23:13:07.875Z,24.96
2023-05-10T23:15:09.563Z,24.97
2023-05-10T23:17:11.569Z,24.98
2023-05-10T23:19:13.079Z,24.90
2023-05-10T23:21:14.512Z,25.01
2023-05-10T23:23:16.726Z,25.01
2023-05-10T23:25:18.238Z,25.03
2023-05-10T23:27:19.889Z,25.02
2023-05-10T23:29:21.400Z,25.03
2023-05-10T23:31:22.871Z,25.02
2023-05-10T23:33:24.856Z,25.03
2023-05-10T23:35:26.304Z,25.03
2023-05-10T23:37:27.935Z,25.04
2023-05-10T23:39:30.111Z,25.04
2023-05-10T23:41:31.661Z,25.05
2023-05-10T23:43:33.147Z,25.05
2023-05-10T23:45:34.888Z,25.07
2023-05-10T23:47:36.461Z,25.08
2023-05-10T23:49:38.164Z,25.09
2023-05-10T23:51:39.654Z,25.09
2023-05-10T23:53:41.320Z,25.10
2023-05-10T23:55:42.804Z,25.10
2023-05-10T23:57:44.400Z,25.10
2023-05-10T23:59:46.152Z,25.09
